sensor_id;sensor_type;location;lat;lon;timestamp;temperature;humidity
10245;DHT22;5167;52.164;10.530;2024-02-26T00:01:25;5.30;22.30
10245;DHT22;5167;52.164;10.530;2024-02-26T00:03:50;5.30;22.10
10245;DHT22;5167;52.164;10.530;2024-02-26T00:06:17;5.20;22.20
10245;DHT22;5167;52.164;10.530;2024-02-26T00:08:43;5.30;23.00
10245;DHT22;5167;52.164;10.530;2024-02-26T00:11:09;5.30;23.10
10245;DHT22;5167;52.164;10.530;2024-02-26T00:13:35;5.50;23.00
10245;DHT22;5167;52.164;10.530;2024-02-26T00:16:02;5.40;23.20
10245;DHT22;5167;52.164;10.530;2024-02-26T00:18:27;5.50;23.20
10245;DHT22;5167;52.164;10.530;2024-02-26T00:20:52;5.50;23.10
10245;DHT22;5167;52.164;10.530;2024-02-26T00:23:18;5.50;22.80
10245;DHT22;5167;52.164;10.530;2024-02-26T00:25:43;5.40;22.20
10245;DHT22;5167;52.164;10.530;2024-02-26T00:28:10;5.50;22.10
10245;DHT22;5167;52.164;10.530;2024-02-26T00:30:35;5.40;22.30
10245;DHT22;5167;52.164;10.530;2024-02-26T00:33:01;5.40;21.80
10245;DHT22;5167;52.164;10.530;2024-02-26T00:35:26;5.40;21.90
10245;DHT22;5167;52.164;10.530;2024-02-26T00:37:52;5.40;22.00
10245;DHT22;5167;52.164;10.530;2024-02-26T00:40:18;5.60;21.50
10245;DHT22;5167;52.164;10.530;2024-02-26T00:42:43;5.40;22.30
10245;DHT22;5167;52.164;10.530;2024-02-26T00:45:11;5.40;22.20
10245;DHT22;5167;52.164;10.530;2024-02-26T00:47:38;5.30;22.30
10245;DHT22;5167;52.164;10.530;2024-02-26T00:50:06;5.30;22.00
10245;DHT22;5167;52.164;10.530;2024-02-26T00:52:32;5.20;23.20
10245;DHT22;5167;52.164;10.530;2024-02-26T00:54:57;5.20;23.50
10245;DHT22;5167;52.164;10.530;2024-02-26T00:57:23;5.20;23.10
10245;DHT22;5167;52.164;10.530;2024-02-26T00:59:49;5.20;23.40
10245;DHT22;5167;52.164;10.530;2024-02-26T01:02:16;5.10;23.70
10245;DHT22;5167;52.164;10.530;2024-02-26T01:04:41;5.10;23.80
10245;DHT22;5167;52.164;10.530;2024-02-26T01:07:07;5.20;23.60
10245;DHT22;5167;52.164;10.530;2024-02-26T01:09:32;5.30;24.10
10245;DHT22;5167;52.164;10.530;2024-02-26T01:11:58;5.20;23.70
10245;DHT22;5167;52.164;10.530;2024-02-26T01:14:23;5.20;23.30
10245;DHT22;5167;52.164;10.530;2024-02-26T01:16:49;5.20;23.20
10245;DHT22;5167;52.164;10.530;2024-02-26T01:19:14;5.30;22.70
10245;DHT22;5167;52.164;10.530;2024-02-26T01:21:40;5.30;23.70
10245;DHT22;5167;52.164;10.530;2024-02-26T01:24:06;5.30;23.70
10245;DHT22;5167;52.164;10.530;2024-02-26T01:26:32;5.30;23.10
10245;DHT22;5167;52.164;10.530;2024-02-26T01:28:58;5.30;22.90
10245;DHT22;5167;52.164;10.530;2024-02-26T01:31:23;5.30;22.80
10245;DHT22;5167;52.164;10.530;2024-02-26T01:33:49;5.30;23.10
10245;DHT22;5167;52.164;10.530;2024-02-26T01:36:14;5.40;22.80
10245;DHT22;5167;52.164;10.530;2024-02-26T01:38:39;5.30;22.80
10245;DHT22;5167;52.164;10.530;2024-02-26T01:41:05;5.30;23.10
10245;DHT22;5167;52.164;10.530;2024-02-26T01:43:31;5.30;23.00
10245;DHT22;5167;52.164;10.530;2024-02-26T01:45:57;5.30;22.50
10245;DHT22;5167;52.164;10.530;2024-02-26T01:48:23;5.30;23.70
10245;DHT22;5167;52.164;10.530;2024-02-26T01:50:49;5.40;23.10
10245;DHT22;5167;52.164;10.530;2024-02-26T01:53:16;5.30;23.00
10245;DHT22;5167;52.164;10.530;2024-02-26T01:55:42;5.30;23.10
10245;DHT22;5167;52.164;10.530;2024-02-26T01:58:08;5.30;22.80
10245;DHT22;5167;52.164;10.530;2024-02-26T02:00:34;5.30;22.90
10245;DHT22;5167;52.164;10.530;2024-02-26T02:03:01;5.20;22.70
10245;DHT22;5167;52.164;10.530;2024-02-26T02:05:28;5.20;23.30
10245;DHT22;5167;52.164;10.530;2024-02-26T02:07:54;5.30;23.30
10245;DHT22;5167;52.164;10.530;2024-02-26T02:10:20;5.20;23.10
10245;DHT22;5167;52.164;10.530;2024-02-26T02:12:51;5.20;23.40
10245;DHT22;5167;52.164;10.530;2024-02-26T02:15:16;5.20;23.70
10245;DHT22;5167;52.164;10.530;2024-02-26T02:17:42;5.20;23.60
10245;DHT22;5167;52.164;10.530;2024-02-26T02:20:09;5.20;23.20
10245;DHT22;5167;52.164;10.530;2024-02-26T02:22:35;5.30;23.50
10245;DHT22;5167;52.164;10.530;2024-02-26T02:25:00;5.20;23.40
10245;DHT22;5167;52.164;10.530;2024-02-26T02:27:27;5.20;23.90
10245;DHT22;5167;52.164;10.530;2024-02-26T02:29:53;5.30;22.90
10245;DHT22;5167;52.164;10.530;2024-02-26T02:32:19;5.20;24.10
10245;DHT22;5167;52.164;10.530;2024-02-26T02:34:45;5.20;23.80
10245;DHT22;5167;52.164;10.530;2024-02-26T02:37:11;5.20;23.90
10245;DHT22;5167;52.164;10.530;2024-02-26T02:39:37;5.20;24.10
10245;DHT22;5167;52.164;10.530;2024-02-26T02:42:02;5.30;23.90
10245;DHT22;5167;52.164;10.530;2024-02-26T02:44:28;5.20;23.70
10245;DHT22;5167;52.164;10.530;2024-02-26T02:46:53;5.20;23.90
10245;DHT22;5167;52.164;10.530;2024-02-26T02:49:19;5.20;24.00
10245;DHT22;5167;52.164;10.530;2024-02-26T02:51:44;5.30;23.90
10245;DHT22;5167;52.164;10.530;2024-02-26T02:54:10;5.20;24.30
10245;DHT22;5167;52.164;10.530;2024-02-26T02:56:35;5.20;24.30
10245;DHT22;5167;52.164;10.530;2024-02-26T02:59:01;5.20;23.90
10245;DHT22;5167;52.164;10.530;2024-02-26T03:01:27;5.20;24.20
10245;DHT22;5167;52.164;10.530;2024-02-26T03:03:52;5.10;24.80
10245;DHT22;5167;52.164;10.530;2024-02-26T03:06:18;5.10;24.50
10245;DHT22;5167;52.164;10.530;2024-02-26T03:08:44;5.10;24.30
10245;DHT22;5167;52.164;10.530;2024-02-26T03:11:13;5.10;24.30
10245;DHT22;5167;52.164;10.530;2024-02-26T03:13:40;5.00;24.80
10245;DHT22;5167;52.164;10.530;2024-02-26T03:16:06;5.10;25.00
10245;DHT22;5167;52.164;10.530;2024-02-26T03:18:31;5.00;24.90
10245;DHT22;5167;52.164;10.530;2024-02-26T03:20:57;5.00;24.40
10245;DHT22;5167;52.164;10.530;2024-02-26T03:23:22;5.00;25.00
10245;DHT22;5167;52.164;10.530;2024-02-26T03:25:48;5.00;24.80
10245;DHT22;5167;52.164;10.530;2024-02-26T03:28:13;5.00;24.70
10245;DHT22;5167;52.164;10.530;2024-02-26T03:30:39;5.00;25.00
10245;DHT22;5167;52.164;10.530;2024-02-26T03:33:04;4.90;25.20
10245;DHT22;5167;52.164;10.530;2024-02-26T03:35:30;4.90;25.40
10245;DHT22;5167;52.164;10.530;2024-02-26T03:37:55;4.80;25.50
10245;DHT22;5167;52.164;10.530;2024-02-26T03:40:21;4.90;25.60
10245;DHT22;5167;52.164;10.530;2024-02-26T03:42:46;4.80;25.70
10245;DHT22;5167;52.164;10.530;2024-02-26T03:45:12;4.80;25.50
10245;DHT22;5167;52.164;10.530;2024-02-26T03:47:38;4.80;26.00
10245;DHT22;5167;52.164;10.530;2024-02-26T03:50:06;4.80;26.20
10245;DHT22;5167;52.164;10.530;2024-02-26T03:52:32;4.80;26.70
10245;DHT22;5167;52.164;10.530;2024-02-26T03:55:00;4.80;26.80
10245;DHT22;5167;52.164;10.530;2024-02-26T03:57:25;4.90;27.10
10245;DHT22;5167;52.164;10.530;2024-02-26T03:59:51;4.80;27.40
10245;DHT22;5167;52.164;10.530;2024-02-26T04:02:16;4.90;27.50
10245;DHT22;5167;52.164;10.530;2024-02-26T04:04:44;4.90;27.40
10245;DHT22;5167;52.164;10.530;2024-02-26T04:07:10;4.90;27.20
10245;DHT22;5167;52.164;10.530;2024-02-26T04:09:36;5.00;27.60
10245;DHT22;5167;52.164;10.530;2024-02-26T04:12:02;5.00;27.80
10245;DHT22;5167;52.164;10.530;2024-02-26T04:14:28;4.80;27.50
10245;DHT22;5167;52.164;10.530;2024-02-26T04:16:53;4.80;28.00
10245;DHT22;5167;52.164;10.530;2024-02-26T04:19:20;4.80;27.90
10245;DHT22;5167;52.164;10.530;2024-02-26T04:21:45;4.80;28.00
10245;DHT22;5167;52.164;10.530;2024-02-26T04:24:11;4.90;28.30
10245;DHT22;5167;52.164;10.530;2024-02-26T04:26:37;4.80;28.20
10245;DHT22;5167;52.164;10.530;2024-02-26T04:29:02;4.90;28.30
10245;DHT22;5167;52.164;10.530;2024-02-26T04:31:28;4.80;29.00
10245;DHT22;5167;52.164;10.530;2024-02-26T04:33:54;4.80;28.70
10245;DHT22;5167;52.164;10.530;2024-02-26T04:36:19;4.90;29.50
10245;DHT22;5167;52.164;10.530;2024-02-26T04:38:45;4.90;28.90
10245;DHT22;5167;52.164;10.530;2024-02-26T04:41:11;4.90;28.70
10245;DHT22;5167;52.164;10.530;2024-02-26T04:43:37;4.90;29.30
10245;DHT22;5167;52.164;10.530;2024-02-26T04:46:07;4.90;28.80
10245;DHT22;5167;52.164;10.530;2024-02-26T04:48:33;4.80;28.90
10245;DHT22;5167;52.164;10.530;2024-02-26T04:50:59;4.90;29.10
10245;DHT22;5167;52.164;10.530;2024-02-26T04:53:24;4.80;29.10
10245;DHT22;5167;52.164;10.530;2024-02-26T04:55:50;4.80;29.20
10245;DHT22;5167;52.164;10.530;2024-02-26T04:58:15;4.80;29.60
10245;DHT22;5167;52.164;10.530;2024-02-26T05:00:41;4.80;29.70
10245;DHT22;5167;52.164;10.530;2024-02-26T05:03:06;4.90;29.40
10245;DHT22;5167;52.164;10.530;2024-02-26T05:05:33;4.90;29.90
10245;DHT22;5167;52.164;10.530;2024-02-26T05:07:58;4.80;29.60
10245;DHT22;5167;52.164;10.530;2024-02-26T05:10:24;4.80;29.80
10245;DHT22;5167;52.164;10.530;2024-02-26T05:12:49;4.90;30.00
10245;DHT22;5167;52.164;10.530;2024-02-26T05:15:14;4.80;29.70
10245;DHT22;5167;52.164;10.530;2024-02-26T05:17:44;4.80;30.00
10245;DHT22;5167;52.164;10.530;2024-02-26T05:20:09;4.80;30.10
10245;DHT22;5167;52.164;10.530;2024-02-26T05:22:35;4.80;30.20
10245;DHT22;5167;52.164;10.530;2024-02-26T05:25:00;4.90;29.70
10245;DHT22;5167;52.164;10.530;2024-02-26T05:27:26;4.80;29.80
10245;DHT22;5167;52.164;10.530;2024-02-26T05:29:51;4.80;29.80
10245;DHT22;5167;52.164;10.530;2024-02-26T05:32:19;4.90;30.10
10245;DHT22;5167;52.164;10.530;2024-02-26T05:34:45;4.90;30.00
10245;DHT22;5167;52.164;10.530;2024-02-26T05:37:10;4.90;30.70
10245;DHT22;5167;52.164;10.530;2024-02-26T05:39:36;4.90;30.90
10245;DHT22;5167;52.164;10.530;2024-02-26T05:42:02;4.90;31.00
10245;DHT22;5167;52.164;10.530;2024-02-26T05:44:28;4.90;30.90
10245;DHT22;5167;52.164;10.530;2024-02-26T05:46:53;5.00;31.20
10245;DHT22;5167;52.164;10.530;2024-02-26T05:49:19;5.00;31.10
10245;DHT22;5167;52.164;10.530;2024-02-26T05:51:44;5.10;31.00
10245;DHT22;5167;52.164;10.530;2024-02-26T05:54:10;5.20;30.80
10245;DHT22;5167;52.164;10.530;2024-02-26T05:56:35;5.10;30.60
10245;DHT22;5167;52.164;10.530;2024-02-26T05:59:01;5.10;30.50
10245;DHT22;5167;52.164;10.530;2024-02-26T06:01:26;5.10;30.40
10245;DHT22;5167;52.164;10.530;2024-02-26T06:03:52;5.30;30.00
10245;DHT22;5167;52.164;10.530;2024-02-26T06:06:17;5.20;29.80
10245;DHT22;5167;52.164;10.530;2024-02-26T06:08:43;5.30;30.00
10245;DHT22;5167;52.164;10.530;2024-02-26T06:11:09;5.30;29.40
10245;DHT22;5167;52.164;10.530;2024-02-26T06:13:35;5.30;29.40
10245;DHT22;5167;52.164;10.530;2024-02-26T06:16:01;5.20;30.00
10245;DHT22;5167;52.164;10.530;2024-02-26T06:18:27;5.30;29.50
10245;DHT22;5167;52.164;10.530;2024-02-26T06:20:53;5.40;29.60
10245;DHT22;5167;52.164;10.530;2024-02-26T06:23:18;5.30;29.20
10245;DHT22;5167;52.164;10.530;2024-02-26T06:25:44;5.40;29.50
10245;DHT22;5167;52.164;10.530;2024-02-26T06:28:09;5.40;29.20
10245;DHT22;5167;52.164;10.530;2024-02-26T06:30:35;5.40;29.30
10245;DHT22;5167;52.164;10.530;2024-02-26T06:33:01;5.30;29.70
10245;DHT22;5167;52.164;10.530;2024-02-26T06:35:27;5.40;29.20
10245;DHT22;5167;52.164;10.530;2024-02-26T06:37:52;5.40;29.10
10245;DHT22;5167;52.164;10.530;2024-02-26T06:40:19;5.40;29.20
10245;DHT22;5167;52.164;10.530;2024-02-26T06:42:44;5.50;29.50
10245;DHT22;5167;52.164;10.530;2024-02-26T06:45:10;5.50;28.60
10245;DHT22;5167;52.164;10.530;2024-02-26T06:47:35;5.50;29.10
10245;DHT22;5167;52.164;10.530;2024-02-26T06:50:01;5.50;28.80
10245;DHT22;5167;52.164;10.530;2024-02-26T06:52:26;5.50;28.80
10245;DHT22;5167;52.164;10.530;2024-02-26T06:54:52;5.60;28.10
10245;DHT22;5167;52.164;10.530;2024-02-26T06:57:21;5.60;28.00
10245;DHT22;5167;52.164;10.530;2024-02-26T06:59:46;5.60;28.00
10245;DHT22;5167;52.164;10.530;2024-02-26T07:02:15;5.60;28.40
10245;DHT22;5167;52.164;10.530;2024-02-26T07:04:42;5.50;28.50
10245;DHT22;5167;52.164;10.530;2024-02-26T07:07:08;5.50;28.70
10245;DHT22;5167;52.164;10.530;2024-02-26T07:09:33;5.50;28.60
10245;DHT22;5167;52.164;10.530;2024-02-26T07:11:59;5.40;28.60
10245;DHT22;5167;52.164;10.530;2024-02-26T07:14:24;5.50;28.90
10245;DHT22;5167;52.164;10.530;2024-02-26T07:16:50;5.50;28.50
10245;DHT22;5167;52.164;10.530;2024-02-26T07:19:16;5.60;28.70
10245;DHT22;5167;52.164;10.530;2024-02-26T07:21:41;5.60;28.50
10245;DHT22;5167;52.164;10.530;2024-02-26T07:24:07;5.70;28.40
10245;DHT22;5167;52.164;10.530;2024-02-26T07:26:33;5.70;29.00
10245;DHT22;5167;52.164;10.530;2024-02-26T07:28:58;5.70;28.50
10245;DHT22;5167;52.164;10.530;2024-02-26T07:31:25;5.70;28.40
10245;DHT22;5167;52.164;10.530;2024-02-26T07:33:51;5.80;28.00
10245;DHT22;5167;52.164;10.530;2024-02-26T07:36:16;5.80;28.40
10245;DHT22;5167;52.164;10.530;2024-02-26T07:38:42;5.80;28.20
10245;DHT22;5167;52.164;10.530;2024-02-26T07:41:07;5.80;28.30
10245;DHT22;5167;52.164;10.530;2024-02-26T07:43:34;5.80;28.00
10245;DHT22;5167;52.164;10.530;2024-02-26T07:45:59;5.80;27.30
10245;DHT22;5167;52.164;10.530;2024-02-26T07:48:25;5.80;28.30
10245;DHT22;5167;52.164;10.530;2024-02-26T07:50:50;5.80;27.80
10245;DHT22;5167;52.164;10.530;2024-02-26T07:53:16;5.90;28.70
10245;DHT22;5167;52.164;10.530;2024-02-26T07:55:41;5.80;28.10
10245;DHT22;5167;52.164;10.530;2024-02-26T07:58:07;5.90;28.20
10245;DHT22;5167;52.164;10.530;2024-02-26T08:00:32;5.90;28.30
10245;DHT22;5167;52.164;10.530;2024-02-26T08:02:57;5.90;28.30
10245;DHT22;5167;52.164;10.530;2024-02-26T08:05:23;5.90;28.20
10245;DHT22;5167;52.164;10.530;2024-02-26T08:07:50;6.00;28.20
10245;DHT22;5167;52.164;10.530;2024-02-26T08:10:15;6.00;27.70
10245;DHT22;5167;52.164;10.530;2024-02-26T08:12:41;6.00;27.40
10245;DHT22;5167;52.164;10.530;2024-02-26T08:15:07;6.00;27.50
10245;DHT22;5167;52.164;10.530;2024-02-26T08:17:33;6.00;27.40
10245;DHT22;5167;52.164;10.530;2024-02-26T08:19:59;6.10;27.00
10245;DHT22;5167;52.164;10.530;2024-02-26T08:22:25;6.10;27.50
10245;DHT22;5167;52.164;10.530;2024-02-26T08:24:50;6.10;27.80
10245;DHT22;5167;52.164;10.530;2024-02-26T08:27:16;6.10;27.40
10245;DHT22;5167;52.164;10.530;2024-02-26T08:29:42;6.20;26.90
10245;DHT22;5167;52.164;10.530;2024-02-26T08:32:07;6.20;27.60
10245;DHT22;5167;52.164;10.530;2024-02-26T08:34:33;6.20;27.60
10245;DHT22;5167;52.164;10.530;2024-02-26T08:36:58;6.30;27.10
10245;DHT22;5167;52.164;10.530;2024-02-26T08:39:24;6.30;26.70
10245;DHT22;5167;52.164;10.530;2024-02-26T08:41:51;6.30;25.50
10245;DHT22;5167;52.164;10.530;2024-02-26T08:44:16;6.40;25.40
10245;DHT22;5167;52.164;10.530;2024-02-26T08:46:42;6.40;25.80
10245;DHT22;5167;52.164;10.530;2024-02-26T08:49:07;6.40;25.90
10245;DHT22;5167;52.164;10.530;2024-02-26T08:51:33;6.50;25.10
10245;DHT22;5167;52.164;10.530;2024-02-26T08:53:58;6.40;25.00
10245;DHT22;5167;52.164;10.530;2024-02-26T08:56:24;6.50;25.50
10245;DHT22;5167;52.164;10.530;2024-02-26T08:58:49;6.50;25.10
10245;DHT22;5167;52.164;10.530;2024-02-26T09:01:18;6.60;24.60
10245;DHT22;5167;52.164;10.530;2024-02-26T09:03:44;6.60;24.80
10245;DHT22;5167;52.164;10.530;2024-02-26T09:06:09;6.70;24.50
10245;DHT22;5167;52.164;10.530;2024-02-26T09:08:35;6.70;24.30
10245;DHT22;5167;52.164;10.530;2024-02-26T09:11:01;6.70;24.30
10245;DHT22;5167;52.164;10.530;2024-02-26T09:13:28;6.80;24.40
10245;DHT22;5167;52.164;10.530;2024-02-26T09:15:54;6.80;24.40
10245;DHT22;5167;52.164;10.530;2024-02-26T09:18:20;6.90;24.60
10245;DHT22;5167;52.164;10.530;2024-02-26T09:20:45;6.90;24.40
10245;DHT22;5167;52.164;10.530;2024-02-26T09:23:11;6.90;23.60
10245;DHT22;5167;52.164;10.530;2024-02-26T09:25:36;7.00;22.80
10245;DHT22;5167;52.164;10.530;2024-02-26T09:28:02;7.10;23.70
10245;DHT22;5167;52.164;10.530;2024-02-26T09:30:27;7.20;23.10
10245;DHT22;5167;52.164;10.530;2024-02-26T09:32:53;7.20;23.20
10245;DHT22;5167;52.164;10.530;2024-02-26T09:35:18;7.40;21.80
10245;DHT22;5167;52.164;10.530;2024-02-26T09:37:44;7.40;21.80
10245;DHT22;5167;52.164;10.530;2024-02-26T09:40:10;7.40;21.10
10245;DHT22;5167;52.164;10.530;2024-02-26T09:42:43;7.50;21.30
10245;DHT22;5167;52.164;10.530;2024-02-26T09:45:11;7.60;20.80
10245;DHT22;5167;52.164;10.530;2024-02-26T09:47:38;7.60;20.10
10245;DHT22;5167;52.164;10.530;2024-02-26T09:50:05;7.70;20.60
10245;DHT22;5167;52.164;10.530;2024-02-26T09:52:37;7.70;19.90
10245;DHT22;5167;52.164;10.530;2024-02-26T09:55:04;7.80;19.80
10245;DHT22;5167;52.164;10.530;2024-02-26T09:57:30;7.80;18.60
10245;DHT22;5167;52.164;10.530;2024-02-26T09:59:59;7.90;18.90
10245;DHT22;5167;52.164;10.530;2024-02-26T10:02:25;7.90;19.20
10245;DHT22;5167;52.164;10.530;2024-02-26T10:04:51;8.00;18.40
10245;DHT22;5167;52.164;10.530;2024-02-26T10:07:19;8.00;18.70
10245;DHT22;5167;52.164;10.530;2024-02-26T10:09:45;8.00;18.10
10245;DHT22;5167;52.164;10.530;2024-02-26T10:12:11;8.10;18.20
10245;DHT22;5167;52.164;10.530;2024-02-26T10:14:37;8.10;18.30
10245;DHT22;5167;52.164;10.530;2024-02-26T10:17:06;8.10;17.70
10245;DHT22;5167;52.164;10.530;2024-02-26T10:19:32;8.20;17.80
10245;DHT22;5167;52.164;10.530;2024-02-26T10:21:58;8.30;17.40
10245;DHT22;5167;52.164;10.530;2024-02-26T10:24:25;8.30;17.80
10245;DHT22;5167;52.164;10.530;2024-02-26T10:26:51;8.20;18.10
10245;DHT22;5167;52.164;10.530;2024-02-26T10:29:18;8.30;17.90
10245;DHT22;5167;52.164;10.530;2024-02-26T10:31:43;8.20;18.10
10245;DHT22;5167;52.164;10.530;2024-02-26T10:34:09;8.20;18.10
10245;DHT22;5167;52.164;10.530;2024-02-26T10:36:35;8.20;18.20
10245;DHT22;5167;52.164;10.530;2024-02-26T10:39:05;8.20;18.80
10245;DHT22;5167;52.164;10.530;2024-02-26T10:41:30;8.20;18.80
10245;DHT22;5167;52.164;10.530;2024-02-26T10:43:58;8.20;19.20
10245;DHT22;5167;52.164;10.530;2024-02-26T10:46:23;8.30;19.00
10245;DHT22;5167;52.164;10.530;2024-02-26T10:48:50;8.20;18.90
10245;DHT22;5167;52.164;10.530;2024-02-26T10:51:20;8.20;19.10
10245;DHT22;5167;52.164;10.530;2024-02-26T10:53:48;8.20;19.30
10245;DHT22;5167;52.164;10.530;2024-02-26T10:56:16;8.30;19.70
10245;DHT22;5167;52.164;10.530;2024-02-26T10:58:43;8.30;20.00
10245;DHT22;5167;52.164;10.530;2024-02-26T11:01:11;8.30;19.30
10245;DHT22;5167;52.164;10.530;2024-02-26T11:03:38;8.30;20.00
10245;DHT22;5167;52.164;10.530;2024-02-26T11:06:05;8.40;18.80
10245;DHT22;5167;52.164;10.530;2024-02-26T11:08:31;8.40;20.00
10245;DHT22;5167;52.164;10.530;2024-02-26T11:10:57;8.30;19.70
10245;DHT22;5167;52.164;10.530;2024-02-26T11:13:27;8.30;19.20
10245;DHT22;5167;52.164;10.530;2024-02-26T11:15:55;8.30;19.90
10245;DHT22;5167;52.164;10.530;2024-02-26T11:18:23;8.30;19.40
10245;DHT22;5167;52.164;10.530;2024-02-26T11:20:49;8.30;19.10
10245;DHT22;5167;52.164;10.530;2024-02-26T11:23:15;8.40;19.60
10245;DHT22;5167;52.164;10.530;2024-02-26T11:25:41;8.40;19.50
10245;DHT22;5167;52.164;10.530;2024-02-26T11:28:11;8.40;19.10
10245;DHT22;5167;52.164;10.530;2024-02-26T11:30:41;8.40;19.40
10245;DHT22;5167;52.164;10.530;2024-02-26T11:33:12;8.60;19.40
10245;DHT22;5167;52.164;10.530;2024-02-26T11:35:39;8.70;20.10
10245;DHT22;5167;52.164;10.530;2024-02-26T11:38:04;8.60;19.40
10245;DHT22;5167;52.164;10.530;2024-02-26T11:40:32;8.60;18.70
10245;DHT22;5167;52.164;10.530;2024-02-26T11:42:58;8.70;18.60
10245;DHT22;5167;52.164;10.530;2024-02-26T11:48:10;8.70;19.30
10245;DHT22;5167;52.164;10.530;2024-02-26T11:50:39;8.70;19.50
10245;DHT22;5167;52.164;10.530;2024-02-26T11:53:27;8.80;19.30
10245;DHT22;5167;52.164;10.530;2024-02-26T11:58:57;8.80;18.80
10245;DHT22;5167;52.164;10.530;2024-02-26T12:01:48;8.80;19.40
10245;DHT22;5167;52.164;10.530;2024-02-26T12:04:19;8.80;19.00
10245;DHT22;5167;52.164;10.530;2024-02-26T12:09:34;8.80;19.40
10245;DHT22;5167;52.164;10.530;2024-02-26T12:12:18;8.90;19.20
10245;DHT22;5167;52.164;10.530;2024-02-26T12:14:52;8.90;19.40
10245;DHT22;5167;52.164;10.530;2024-02-26T12:17:25;9.00;18.80
10245;DHT22;5167;52.164;10.530;2024-02-26T12:19:51;9.10;19.50
10245;DHT22;5167;52.164;10.530;2024-02-26T12:22:19;9.10;19.30
10245;DHT22;5167;52.164;10.530;2024-02-26T12:24:44;9.10;19.20
10245;DHT22;5167;52.164;10.530;2024-02-26T12:27:10;9.10;19.00
10245;DHT22;5167;52.164;10.530;2024-02-26T12:29:35;9.20;19.00
10245;DHT22;5167;52.164;10.530;2024-02-26T12:32:03;9.20;18.80
10245;DHT22;5167;52.164;10.530;2024-02-26T12:34:29;9.20;18.40
10245;DHT22;5167;52.164;10.530;2024-02-26T12:36:55;9.20;18.60
10245;DHT22;5167;52.164;10.530;2024-02-26T12:39:21;9.20;19.40
10245;DHT22;5167;52.164;10.530;2024-02-26T12:41:46;9.20;19.30
10245;DHT22;5167;52.164;10.530;2024-02-26T12:44:18;9.40;19.50
10245;DHT22;5167;52.164;10.530;2024-02-26T12:46:44;9.30;19.60
10245;DHT22;5167;52.164;10.530;2024-02-26T12:49:14;9.40;19.50
10245;DHT22;5167;52.164;10.530;2024-02-26T12:51:41;9.40;19.40
10245;DHT22;5167;52.164;10.530;2024-02-26T12:54:07;9.50;19.70
10245;DHT22;5167;52.164;10.530;2024-02-26T12:56:34;9.50;19.60
10245;DHT22;5167;52.164;10.530;2024-02-26T12:58:59;9.60;19.90
10245;DHT22;5167;52.164;10.530;2024-02-26T13:01:25;9.60;19.40
10245;DHT22;5167;52.164;10.530;2024-02-26T13:03:52;9.60;19.60
10245;DHT22;5167;52.164;10.530;2024-02-26T13:06:18;9.60;19.90
10245;DHT22;5167;52.164;10.530;2024-02-26T13:08:45;9.70;19.90
10245;DHT22;5167;52.164;10.530;2024-02-26T13:11:12;9.80;20.10
10245;DHT22;5167;52.164;10.530;2024-02-26T13:13:37;9.80;19.50
10245;DHT22;5167;52.164;10.530;2024-02-26T13:16:08;9.90;19.20
10245;DHT22;5167;52.164;10.530;2024-02-26T13:18:34;9.90;18.70
10245;DHT22;5167;52.164;10.530;2024-02-26T13:21:10;10.00;18.50
10245;DHT22;5167;52.164;10.530;2024-02-26T13:23:40;10.00;18.60
10245;DHT22;5167;52.164;10.530;2024-02-26T13:26:06;10.00;18.20
10245;DHT22;5167;52.164;10.530;2024-02-26T13:28:32;10.10;19.00
10245;DHT22;5167;52.164;10.530;2024-02-26T13:30:58;10.20;18.30
10245;DHT22;5167;52.164;10.530;2024-02-26T13:33:25;10.20;16.20
10245;DHT22;5167;52.164;10.530;2024-02-26T13:35:52;10.10;17.10
10245;DHT22;5167;52.164;10.530;2024-02-26T13:38:18;10.10;16.70
10245;DHT22;5167;52.164;10.530;2024-02-26T13:40:43;10.20;17.10
10245;DHT22;5167;52.164;10.530;2024-02-26T13:43:09;10.20;16.70
10245;DHT22;5167;52.164;10.530;2024-02-26T13:45:36;10.20;16.80
10245;DHT22;5167;52.164;10.530;2024-02-26T13:48:07;10.20;17.20
10245;DHT22;5167;52.164;10.530;2024-02-26T13:50:33;10.20;16.60
10245;DHT22;5167;52.164;10.530;2024-02-26T13:52:58;10.10;17.10
10245;DHT22;5167;52.164;10.530;2024-02-26T13:55:25;10.10;17.10
10245;DHT22;5167;52.164;10.530;2024-02-26T13:57:53;10.00;17.20
10245;DHT22;5167;52.164;10.530;2024-02-26T14:00:20;10.00;17.10
10245;DHT22;5167;52.164;10.530;2024-02-26T14:02:45;10.00;16.70
10245;DHT22;5167;52.164;10.530;2024-02-26T14:05:11;9.90;16.80
10245;DHT22;5167;52.164;10.530;2024-02-26T14:07:36;9.90;17.20
10245;DHT22;5167;52.164;10.530;2024-02-26T14:10:02;9.90;17.40
10245;DHT22;5167;52.164;10.530;2024-02-26T14:12:28;9.90;17.40
10245;DHT22;5167;52.164;10.530;2024-02-26T14:14:54;9.80;17.60
10245;DHT22;5167;52.164;10.530;2024-02-26T14:17:21;9.90;17.60
10245;DHT22;5167;52.164;10.530;2024-02-26T14:19:47;9.90;17.70
10245;DHT22;5167;52.164;10.530;2024-02-26T14:22:14;9.90;18.00
10245;DHT22;5167;52.164;10.530;2024-02-26T14:24:39;9.80;18.20
10245;DHT22;5167;52.164;10.530;2024-02-26T14:27:07;9.80;18.70
10245;DHT22;5167;52.164;10.530;2024-02-26T14:29:33;9.90;19.00
10245;DHT22;5167;52.164;10.530;2024-02-26T14:31:58;9.90;18.20
10245;DHT22;5167;52.164;10.530;2024-02-26T14:34:24;9.90;19.20
10245;DHT22;5167;52.164;10.530;2024-02-26T14:36:49;9.90;18.70
10245;DHT22;5167;52.164;10.530;2024-02-26T14:39:15;9.90;19.40
10245;DHT22;5167;52.164;10.530;2024-02-26T14:41:40;9.90;19.70
10245;DHT22;5167;52.164;10.530;2024-02-26T14:44:06;9.90;20.00
10245;DHT22;5167;52.164;10.530;2024-02-26T14:46:32;10.10;20.10
10245;DHT22;5167;52.164;10.530;2024-02-26T14:48:57;9.90;19.80
10245;DHT22;5167;52.164;10.530;2024-02-26T14:51:23;10.00;20.00
10245;DHT22;5167;52.164;10.530;2024-02-26T14:53:48;10.10;19.30
10245;DHT22;5167;52.164;10.530;2024-02-26T14:56:14;10.00;19.40
10245;DHT22;5167;52.164;10.530;2024-02-26T14:58:40;10.10;19.70
10245;DHT22;5167;52.164;10.530;2024-02-26T15:01:05;10.10;19.40
10245;DHT22;5167;52.164;10.530;2024-02-26T15:03:31;10.40;19.30
10245;DHT22;5167;52.164;10.530;2024-02-26T15:05:56;10.20;18.70
10245;DHT22;5167;52.164;10.530;2024-02-26T15:08:21;10.30;18.20
10245;DHT22;5167;52.164;10.530;2024-02-26T15:10:47;10.20;17.90
10245;DHT22;5167;52.164;10.530;2024-02-26T15:13:14;10.30;17.90
10245;DHT22;5167;52.164;10.530;2024-02-26T15:15:41;10.30;18.10
10245;DHT22;5167;52.164;10.530;2024-02-26T15:18:07;10.20;18.10
10245;DHT22;5167;52.164;10.530;2024-02-26T15:20:33;10.20;18.30
10245;DHT22;5167;52.164;10.530;2024-02-26T15:22:59;10.20;18.70
10245;DHT22;5167;52.164;10.530;2024-02-26T15:25:24;10.10;18.90
10245;DHT22;5167;52.164;10.530;2024-02-26T15:27:50;10.10;19.50
10245;DHT22;5167;52.164;10.530;2024-02-26T15:30:15;10.00;19.40
10245;DHT22;5167;52.164;10.530;2024-02-26T15:32:41;10.00;19.70
10245;DHT22;5167;52.164;10.530;2024-02-26T15:35:09;10.10;19.60
10245;DHT22;5167;52.164;10.530;2024-02-26T15:37:35;10.10;19.80
10245;DHT22;5167;52.164;10.530;2024-02-26T15:40:00;10.10;19.40
10245;DHT22;5167;52.164;10.530;2024-02-26T15:42:26;10.10;19.40
10245;DHT22;5167;52.164;10.530;2024-02-26T15:44:51;10.10;19.50
10245;DHT22;5167;52.164;10.530;2024-02-26T15:47:17;10.10;18.80